Aérodrome :
LOGIN :

S'inscrire | Disclaimer

   EN    FR    IT 

 










Légende :    VFR   VFR Marginal   IFR   IFR Intensif   IFR Très Intensif
Visi : 
Plafond : 
>= 8 km
>= 3000ft
5 à 8 km
1000 à 3000 ft
1500m à 5 km
500 à 1000 ft
800 à 1500m
200 à 500 ft
< 800m
< 200 ft
Symboles :   Orages  Brouillard  Fortes neiges  Fortes précipitations  Vent > 20 kt
SIGMETs :   Divers  Orages  Givrage  Turbulence  Onde Orograph.  Cendres Volcan.







- Altitude de l'aérodrome : 459 ft
- Code IATA : CER
- Voir les cartes d'approche


LFRC - Cherbourg / Maupertus

DERNIER METAR :
  • 250630Z AUTO 34008KT 310V010 CAVOK 05/M02 Q1014 NOSIG

METARs EXPIRÉS :
  • 250600Z AUTO 35009KT CAVOK 05/M03 Q1014 NOSIG
  • 250530Z AUTO 34008KT 9999 FEW034 BKN190 04/M02 Q1014 NOSIG
  • 250500Z AUTO 35010KT CAVOK 04/M03 Q1014
  • 250430Z AUTO 36011KT CAVOK 05/M03 Q1014
  • 250400Z AUTO 35010KT CAVOK 05/M03 Q1014

TAF TAF LFRC
Valide du 25 à 06h jusqu'au 25 à 15h UTC


250500Z 2506/2515 01010KT 9999 SCT040
PROB30
TEMPO 2511/2515 01015G25KT 5000 SHRA BKN020TCU
Pas de NOTAMs connus pour ce terrain.



MET'MAP, la Météo Aéronautique d'un coup d'oeil ! - Copyright ORBIFLY Décembre 2007 - Disclaimer

ORBIFLY MET'MAP TEAM :

Programmation & Développement : Alexandra Zaïnal
Conception & Développement : Baudouin d'Aumeries
Co-Programmation & Développement : Marc-Olivier Méhu
Soutien technique & logistique : Manuel Goepfert

Contact : metmap@orbifly.com




SOURCES & CREDITS :

   NOAA